Menu       Home   X °C

Select another period ( hide this area )

Units Period Custom range Directly to
Metric English Both
Daily Weekly Monthly Yearly
use both date-selectors for a custom range
previous Day
With this date
Daily Summary for Tuesday 23 July 2024
Time Temp. ( °F ) Dew pt. ( °F ) Wind ( mph ) From Gust ( mph ) Pressure ( in ) Humid.( % ) Rainrate ( in )
High70.5 63.9 8.1 WSW ( 585/1123 ) 17.4 30.01 85 -
Average64.6 58.1 2.7 WSW #95/264 7.1 29.99 80 -
Low56.1 50.0 -   0.0 29.95 69 -
Daily Tabular details for Tuesday 23 July 2024
Time Temp. ( °F ) Dew pt. ( °F ) Wind ( mph ) From Gust ( mph ) Pressure ( in ) Humid.( % ) Rainrate ( in )
00:04 64.2 57.9   Calm   29.95 80 -
00:09 64.0 57.4   Calm   29.95 79 -
00:14 64.0 57.4   Calm   29.95 79 -
00:19 63.9 56.8   Calm   29.95 78 -
00:24 63.7 56.7   Calm   29.95 78 -
00:29 63.5 56.5   Calm   29.95 78 -
00:34 63.3 56.5   Calm   29.95 78 -
00:39 63.1 55.9   Calm   29.96 77 -
00:44 63.1 55.8   Calm   29.96 77 -
00:49 63.1 55.8   Calm   29.96 77 -
00:54 63.3 55.6   Calm   29.96 76 -
00:59 63.1 55.2   Calm   29.96 75 -
01:04 63.3 54.9   Calm   29.96 74 -
01:09 63.3 54.7   Calm   29.96 73 -
01:14 63.5 54.3   Calm 1.2 29.96 72 -
01:19 63.5 54.3   Calm 1.2 29.96 72 -
01:24 63.7 54.3   Calm 1.2 29.97 72 -
01:29 63.7 54.3 0.6 West 3.7 29.97 72 -
01:34 63.7 54.1 1.2 West 3.7 29.97 71 -
01:39 63.7 54.1   Calm 1.2 29.97 71 -
01:44 63.7 54.1   Calm 1.2 29.97 71 -
01:49 63.7 54.1 0.6 WNW 2.5 29.97 71 -
01:54 63.9 53.8   Calm 1.9 29.97 70 -
01:59 63.9 53.8 0.6 West 1.2 29.97 70 -
02:04 63.9 53.8 0.6 WNW 1.2 29.97 70 -
02:09 63.7 53.8 0.6 West 2.5 29.98 70 -
02:14 63.7 53.8 0.6 WNW 3.7 29.98 70 -
02:19 63.7 53.2 0.6 NNW 3.1 29.98 69 -
02:24 63.5 53.1 1.2 NW 3.7 29.98 69 -
02:29 63.3 53.1   Calm 3.7 29.98 69 -
02:34 63.1 52.9 0.6 WNW 2.5 29.98 69 -
02:39 63.0 52.5 0.6 NNE 2.5 29.98 69 -
02:44 62.8 52.3   Calm 1.2 29.98 69 -
02:49 62.4 52.2   Calm 1.2 29.98 69 -
02:54 62.2 52.0   Calm 1.2 29.98 69 -
02:59 62.1 52.0 0.6 WNW 1.2 29.98 70 -
03:04 61.7 51.8   Calm 1.2 29.98 70 -
03:09 61.3 51.4   Calm 1.2 29.98 71 -
03:14 61.0 51.3   Calm   29.98 71 -
03:19 60.4 51.1   Calm 1.2 29.98 71 -
03:24 60.3 50.9   Calm 1.2 29.98 72 -
03:29 59.9 50.7   Calm   29.99 72 -
03:34 59.5 50.7   Calm   29.98 73 -
03:39 59.4 50.5   Calm 1.2 29.98 73 -
03:44 59.0 50.5   Calm 1.2 29.99 74 -
03:49 58.8 50.5   Calm 1.2 29.99 74 -
03:54 58.6 50.4   Calm   29.99 74 -
03:59 58.5 50.5   Calm   29.99 75 -
04:04 58.3 50.4   Calm   29.99 75 -
04:09 58.1 50.2   Calm   29.99 75 -
04:14 57.9 50.4   Calm   29.99 76 -
04:19 57.6 50.2   Calm   29.99 76 -
04:24 57.4 50.2   Calm   29.99 77 -
04:29 57.4 50.2   Calm   30.00 77 -
04:34 57.0 50.2   Calm   30.00 78 -
04:39 56.8 50.2   Calm   30.00 78 -
04:44 56.8 50.0   Calm   30.00 78 -
04:49 56.7 50.2   Calm   29.99 79 -
04:54 56.7 50.2   Calm   29.99 79 -
04:59 56.5 50.2   Calm   29.99 80 -
05:04 56.3 50.2   Calm   29.99 80 -
05:09 56.3 50.2   Calm   30.00 80 -
05:14 56.1 50.4   Calm   30.00 81 -
05:19 56.1 50.4   Calm   30.00 81 -
05:24 56.3 50.5   Calm   30.00 81 -
05:29 56.5 50.5   Calm   30.00 81 -
05:34 56.5 50.5   Calm   30.00 81 -
05:39 56.5 50.7   Calm   30.00 81 -
05:44 56.7 50.7   Calm   30.00 81 -
05:49 56.7 50.7   Calm   30.00 81 -
05:54 56.7 50.9   Calm   30.00 81 -
05:59 56.8 51.1   Calm   30.00 81 -
06:04 57.0 51.3 3.1 WSW 5.0 30.00 81 -
06:09 57.4 51.4 1.2 WSW 5.0 30.00 81 -
06:14 57.4 51.6 0.6 WSW 3.1 30.00 81 -
06:19 57.6 52.2 0.6 SW 2.5 30.00 82 -
06:24 57.7 52.2 0.6 SW 1.9 30.00 82 -
06:29 57.9 52.3 3.1 SW 3.7 30.00 82 -
06:34 58.1 52.5 1.9 SW 3.7 30.01 82 -
06:39 58.3 52.9 1.9 SW 3.7 30.01 82 -
06:44 58.5 53.1 1.9 WSW 3.7 30.01 82 -
06:49 58.6 53.2   Calm 3.7 30.01 82 -
06:54 58.8 53.4   Calm   30.00 82 -
06:59 59.2 54.0 1.9 WSW 3.7 30.01 83 -
07:04 59.5 54.3 1.9 SW 3.7 30.01 83 -
07:09 60.1 54.9 1.9 SW 5.0 30.01 83 -
07:14 60.4 55.2 2.5 SW 5.0 30.01 83 -
07:19 60.8 55.6 1.2 SW 3.7 30.01 83 -
07:24 61.2 55.6 3.1 WSW 5.0 30.01 83 -
07:29 61.3 55.9 3.1 SW 5.0 30.01 82 -
07:34 61.7 55.9 4.3 WSW 6.8 30.01 82 -
07:39 62.1 56.1 4.3 SSW 6.8 30.01 81 -
07:44 62.4 56.5 4.3 SW 8.1 30.00 81 -
07:49 63.0 56.7 3.1 SW 8.1 30.00 80 -
07:54 63.0 56.7 3.7 WSW 6.8 30.01 80 -
07:59 63.3 57.0 4.3 WSW 10.6 30.01 80 -
08:04 63.7 57.4 5.6 SW 11.8 30.01 80 -
08:09 64.0 57.7 4.3 WSW 11.8 30.01 80 -
08:14 64.2 57.9 4.3 WSW 8.1 30.01 80 -
08:19 64.2 57.9 6.2 WSW 9.3 30.01 80 -
08:24 64.2 57.9 2.5 WSW 9.3 30.01 80 -
08:29 64.2 57.9 2.5 SW 9.3 30.01 80 -
08:34 64.2 57.9 3.1 WSW 9.3 30.01 80 -
08:39 64.2 58.3 3.7 WSW 9.3 30.01 81 -
08:44 64.4 58.5 3.1 WSW 6.2 30.01 81 -
08:49 64.6 58.5 1.9 SW 6.2 30.01 81 -
08:54 64.6 58.5 2.5 SW 6.2 30.01 81 -
08:59 64.8 58.6 1.9 SW 6.2 30.01 81 -
09:04 64.8 58.8 5.6 WSW 10.6 30.01 81 -
09:09 65.1 59.2 3.7 WSW 9.9 30.01 81 -
09:14 65.3 59.4 3.1 WSW 9.3 30.01 81 -
09:19 65.3 59.4 3.1 WSW 6.8 30.01 81 -
09:24 65.3 59.4 2.5 SW 6.8 30.01 81 -
09:29 65.5 59.4 1.9 SW 6.8 30.01 81 -
09:34 65.5 59.4 1.9 SW 6.2 30.01 81 -
09:39 65.7 59.5 1.9 WSW 6.2 30.01 81 -
09:44 65.7 59.5 4.3 SW 11.8 30.01 81 -
09:49 65.7 59.5 3.1 WSW 11.8 30.01 81 -
09:54 65.7 59.5 2.5 SW 6.2 30.01 81 -
09:59 65.7 59.7 2.5 WSW 6.2 30.01 81 -
10:04 65.7 60.1 5.6 WSW 11.8 30.01 82 -
10:09 65.5 59.7 6.2 SW 11.8 30.01 82 -
10:14 65.3 59.7 3.7 SW 9.9 30.01 82 -
10:19 65.3 59.9 5.0 WSW 11.8 30.01 83 -
10:24 65.1 59.9 5.0 SW 11.8 30.01 83 -
10:29 65.1 59.9 4.3 SW 9.9 30.01 83 -
10:34 65.5 60.1 3.1 WSW 11.2 30.01 83 -
10:39 65.5 60.1 3.7 WSW 11.8 30.01 83 -
10:44 65.5 60.3 3.7 SW 11.8 30.01 83 -
10:49 65.7 60.3 4.3 WSW 11.2 30.01 83 -
10:54 65.7 60.3 5.0 WSW 11.8 30.01 83 -
10:59 65.7 60.4 2.5 WSW 8.1 30.01 83 -
11:04 65.8 60.4 7.5 WSW 11.8 30.01 83 -
11:09 65.7 60.3 6.2 SW 11.8 30.01 83 -
11:14 65.7 60.3 6.8 WSW 11.8 30.01 83 -
11:19 65.5 60.1 6.8 WSW 11.8 30.01 83 -
11:24 65.5 60.1 6.8 WSW 11.8 30.01 83 -
11:29 66.0 60.6 4.3 SW 9.3 30.01 84 -
11:34 66.6 61.2 6.2 SW 11.8 30.01 83 -
11:39 66.6 61.0 6.2 WSW 11.8 30.01 82 -
11:44 66.6 61.0 6.8 WSW 13.0 30.01 82 -
11:49 66.6 60.8 7.5 SW 13.0 30.01 82 -
11:54 66.6 61.0 5.0 WSW 11.8 30.01 82 -
11:59 66.7 61.3 5.0 SW 14.9 30.01 83 -
12:04 66.7 61.2 5.0 WSW 14.9 30.01 82 -
12:09 66.9 61.5 5.6 SW 11.2 30.01 83 -
12:14 66.9 61.3 7.5 WSW 11.8 30.00 82 -
12:19 66.9 61.2 6.2 SW 13.0 30.01 82 -
12:24 66.7 61.2 5.6 SW 13.0 30.01 83 -
12:29 66.6 61.2 3.1 WSW 9.3 30.01 83 -
12:34 66.6 61.2 5.6 WSW 13.0 30.01 83 -
12:39 66.4 61.3 5.0 WSW 13.0 30.01 84 -
12:44 66.6 61.5 5.0 WSW 8.1 30.01 84 -
12:49 66.6 61.5 3.7 SW 8.1 30.01 84 -
12:54 66.7 61.7 3.7 WSW 8.1 30.01 84 -
12:59 66.7 61.9 3.7 WSW 10.6 30.01 84 -
13:04 66.7 61.9 5.0 WSW 11.8 30.01 84 -
13:09 66.7 61.9 2.5 SW 11.8 30.01 84 -
13:14 66.9 62.1 2.5 WSW 9.3 30.01 84 -
13:19 66.9 62.1 6.2 SW 11.8 30.01 84 -
13:24 66.9 61.9 6.8 WSW 11.8 30.01 84 -
13:29 66.7 61.7 6.8 SW 14.9 30.01 84 -
13:34 66.9 62.1 3.7 SW 14.9 30.00 84 -
13:39 67.3 62.2 4.3 SW 8.1 30.01 84 -
13:44 67.5 62.2 5.6 WSW 13.0 30.01 84 -
13:49 67.3 62.1 5.0 WSW 13.0 30.01 83 -
13:54 67.5 62.1 4.3 WSW 6.8 30.01 83 -
13:59 67.5 62.1 3.7 WSW 6.8 30.01 83 -
14:04 67.3 62.2 3.1 WSW 8.1 30.01 84 -
14:09 67.3 62.2 3.1 SW 9.3 30.01 84 -
14:14 67.3 62.2 4.3 SW 11.8 30.01 84 -
14:19 67.5 62.4 3.7 WSW 11.8 30.01 84 -
14:24 67.5 62.4 6.8 SW 13.0 30.01 84 -
14:29 67.8 62.8 3.7 SW 13.0 30.01 84 -
14:34 68.2 62.8 3.7 SW 11.8 30.01 84 -
14:39 68.7 63.1 2.5 SW 9.3 30.01 83 -
14:44 68.9 63.1 5.0 WSW 8.1 30.01 82 -
14:49 69.3 63.7 1.9 WSW 8.1 30.01 82 -
14:54 69.4 63.7 3.1 WSW 8.1 30.01 82 -
14:59 69.4 63.1 3.7 WSW 11.8 30.01 81 -
15:04 69.3 63.1 3.7 SW 11.8 30.01 81 -
15:09 69.4 63.3 3.1 WSW 9.9 30.01 81 -
15:14 69.4 63.1 5.0 SW 10.6 30.01 80 -
15:19 69.3 63.1 5.0 SW 11.8 30.01 81 -
15:24 69.3 63.1 3.1 WSW 11.8 30.01 81 -
15:29 69.3 63.1 5.0 SW 10.6 30.01 81 -
15:34 69.3 63.1 5.0 WSW 11.8 30.00 81 -
15:39 69.6 63.7 3.7 WSW 11.8 30.00 82 -
15:44 70.5 63.9 3.1 West 9.9 30.00 81 -
15:49 70.5 63.9 6.2 WSW 11.8 30.00 80 -
15:54 70.5 63.9 3.1 WSW 11.8 30.00 79 -
15:59 70.3 63.1 5.6 WSW 14.9 30.00 78 -
16:04 70.2 63.3 5.6 WSW 14.9 30.00 79 -
16:09 70.2 63.3 3.1 SW 9.3 30.00 79 -
16:14 70.2 63.3 2.5 WSW 6.2 30.00 79 -
16:19 70.2 63.3 3.7 SW 9.3 30.00 79 -
16:24 70.2 63.0 2.5 West 9.3 30.00 78 -
16:29 70.0 63.1 3.1 WSW 6.8 30.00 79 -
16:34 70.0 63.1 3.7 WSW 8.1 30.00 79 -
16:39 70.2 63.3 2.5 WSW 10.6 30.00 79 -
16:44 70.2 63.0 1.9 WSW 9.9 30.00 78 -
16:49 70.5 63.3 1.2 SW 6.2 30.00 78 -
16:54 70.5 63.3 2.5 SW 9.3 30.00 78 -
16:59 70.3 63.1 2.5 WSW 9.3 30.00 78 -
17:04 70.2 63.0 3.1 West 9.3 30.00 78 -
17:09 70.2 63.0 1.9 SW 9.3 29.99 78 -
17:14 70.2 63.0 3.1 WSW 8.1 29.99 78 -
17:19 70.2 63.0 3.1 West 9.3 29.99 78 -
17:24 70.0 63.0 3.7 West 9.3 29.99 79 -
17:29 69.6 63.0 2.5 SW 9.3 29.99 79 -
17:34 69.6 63.0 3.7 SW 11.8 29.99 79 -
17:39 69.4 63.0 2.5 WSW 11.8 29.99 80 -
17:44 69.3 63.0 5.6 SW 11.8 29.99 80 -
17:49 69.1 62.8 3.7 SW 11.8 29.99 80 -
17:54 69.1 62.8 3.7 SW 10.6 29.99 80 -
17:59 69.1 62.8 1.9 SW 9.9 29.99 80 -
18:04 69.1 62.8 3.1 WSW 9.3 29.99 80 -
18:09 69.1 62.6 2.5 SW 9.3 29.98 80 -
18:14 68.9 62.4 3.7 WSW 10.6 29.99 80 -
18:19 68.7 62.4 3.1 SW 10.6 29.98 80 -
18:24 68.7 62.4 3.1 WSW 9.9 29.98 80 -
18:29 68.7 62.2 8.1 SW 14.9 29.98 80 -
18:34 68.5 62.2 6.8 SW 14.9 29.98 80 -
18:39 68.4 62.1 4.3 SW 13.0 29.98 80 -
18:44 68.2 61.9 3.7 SW 13.0 29.98 81 -
18:49 68.2 62.1 3.1 WSW 6.8 29.98 81 -
18:54 68.0 62.1 5.0 SW 17.4 29.98 81 -
18:59 67.8 61.9 3.1 WSW 16.8 29.98 81 -
19:04 67.8 61.9 2.5 WSW 6.2 29.98 81 -
19:09 67.6 61.7 6.2 WSW 13.0 29.98 81 -
19:14 67.3 61.3 3.7 WSW 13.0 29.98 81 -
19:19 67.1 61.2 3.7 WSW 11.8 29.98 81 -
19:24 66.9 61.0 3.1 WSW 9.9 29.98 81 -
19:29 66.7 60.8 2.5 SW 6.8 29.98 81 -
19:34 66.7 60.6 4.3 SW 11.8 29.98 81 -
19:39 66.6 60.4 3.7 SW 11.8 29.98 81 -
19:44 66.4 60.3 3.1 SW 8.1 29.98 81 -
19:49 66.0 60.1 4.3 SW 9.3 29.99 81 -
19:54 66.0 60.1 3.1 SW 9.3 29.99 81 -
19:59 66.0 60.1 3.7 WSW 9.3 29.99 81 -
20:04 65.8 59.9 3.1 SW 11.8 29.99 81 -
20:09 65.7 59.4 1.9 SW 11.8 29.99 81 -
20:14 65.5 59.4 3.1 WSW 11.8 29.99 81 -
20:19 65.1 59.2 3.1 WSW 11.8 29.99 81 -
20:24 64.9 59.4 3.7 WSW 11.8 29.99 82 -
20:29 64.9 59.4 3.1 WSW 11.8 29.99 82 -
20:34 64.8 59.2 3.1 SW 6.8 29.99 82 -
20:39 64.6 59.2 3.1 SW 8.1 29.99 83 -
20:44 64.4 59.2 3.1 WSW 11.2 29.99 83 -
20:49 64.2 59.0 3.1 WSW 11.8 29.99 83 -
20:54 64.0 58.8 1.9 SW 9.9 29.99 83 -
20:59 64.0 58.6 2.5 WSW 10.6 29.99 83 -
21:04 63.9 58.6 0.6 WSW 5.0 29.99 83 -
21:09 63.7 58.5 2.5 SW 9.3 29.99 83 -
21:14 63.7 58.6 1.9 WSW 9.3 29.99 84 -
21:19 63.5 58.6 1.9 SW 6.8 29.99 84 -
21:24 63.3 58.5 1.2 West 6.8 29.99 84 -
21:29 63.3 58.5 1.9 West 6.2 29.99 84 -
21:34 63.3 58.5 1.9 SW 6.2 29.99 84 -
21:39 63.3 58.5 1.2 WSW 5.0 29.99 84 -
21:44 63.3 58.6 0.6 WNW 3.7 29.99 85 -
21:49 63.1 58.6   Calm 1.2 29.99 85 -
21:54 63.1 58.5 0.6 NNW 3.1 29.99 85 -
21:56 63.0 58.5 0.6 West 3.7 29.99 85 -

Download your copy of this data-set  from WeatherUnderground

Our weather-data as stored at Weather Underground